createdAt,value
2022-11-28T00:02:33.548Z,6.20
2022-11-28T00:05:21.470Z,6.20
2022-11-28T00:08:09.571Z,6.20
2022-11-28T00:10:57.450Z,6.10
2022-11-28T00:13:48.567Z,6.00
2022-11-28T00:16:37.983Z,6.00
2022-11-28T00:19:25.932Z,6.10
2022-11-28T00:22:13.887Z,6.10
2022-11-28T00:25:01.728Z,6.20
2022-11-28T00:27:49.613Z,6.20
2022-11-28T00:30:37.513Z,6.20
2022-11-28T00:33:26.865Z,6.20
2022-11-28T00:36:15.646Z,6.10
2022-11-28T00:39:06.565Z,6.10
2022-11-28T00:41:55.815Z,6.10
2022-11-28T00:44:44.228Z,6.20
2022-11-28T00:47:32.285Z,6.20
2022-11-28T00:50:21.888Z,6.20
2022-11-28T00:53:09.828Z,6.20
2022-11-28T00:55:57.663Z,6.20
2022-11-28T00:58:46.106Z,6.20
2022-11-28T01:01:35.361Z,6.20
2022-11-28T01:04:23.354Z,6.10
2022-11-28T01:07:12.604Z,6.10
2022-11-28T01:10:00.510Z,6.00
2022-11-28T01:12:48.402Z,6.00
2022-11-28T01:15:36.317Z,6.10
2022-11-28T01:18:24.307Z,6.10
2022-11-28T01:21:12.304Z,6.10
2022-11-28T01:24:01.672Z,6.10
2022-11-28T01:26:49.611Z,6.10
2022-11-28T01:29:37.480Z,6.10
2022-11-28T01:32:25.396Z,6.10
2022-11-28T01:35:13.301Z,6.00
2022-11-28T01:38:01.200Z,6.00
2022-11-28T01:40:51.039Z,6.00
2022-11-28T01:43:39.211Z,5.90
2022-11-28T01:46:27.252Z,5.90
2022-11-28T01:49:17.087Z,5.90
2022-11-28T01:52:06.566Z,5.90
2022-11-28T01:54:59.037Z,5.90
2022-11-28T01:57:48.305Z,5.90
2022-11-28T02:00:36.381Z,5.90
2022-11-28T02:03:27.207Z,5.90
2022-11-28T02:06:17.009Z,5.80
2022-11-28T02:09:07.137Z,5.80
2022-11-28T02:12:03.102Z,5.80
2022-11-28T02:15:02.095Z,5.80
2022-11-28T02:17:56.971Z,5.80
2022-11-28T02:20:53.550Z,5.80
2022-11-28T02:24:03.554Z,5.80
2022-11-28T02:27:02.604Z,5.80
2022-11-28T02:30:10.110Z,5.80
2022-11-28T02:33:15.926Z,5.80
2022-11-28T02:36:09.324Z,5.80
2022-11-28T02:38:59.261Z,5.70
2022-11-28T02:41:48.955Z,5.70
2022-11-28T02:44:42.013Z,5.60
2022-11-28T02:47:33.193Z,5.60
2022-11-28T02:50:23.603Z,5.60
2022-11-28T02:53:13.997Z,5.70
2022-11-28T02:56:02.060Z,5.70
2022-11-28T02:58:49.959Z,5.70
2022-11-28T03:01:38.977Z,5.70
2022-11-28T03:04:32.457Z,5.70
2022-11-28T03:07:28.484Z,5.70
2022-11-28T03:10:23.848Z,5.70
2022-11-28T03:13:14.556Z,5.60
2022-11-28T03:16:07.227Z,5.60
2022-11-28T03:19:00.538Z,5.70
2022-11-28T03:21:50.044Z,5.70
2022-11-28T03:24:42.022Z,5.60
2022-11-28T03:27:34.145Z,5.60
2022-11-28T03:30:25.128Z,5.60
2022-11-28T03:33:13.617Z,5.60
2022-11-28T03:36:04.952Z,5.60
2022-11-28T03:38:55.543Z,5.60
2022-11-28T03:41:45.518Z,5.60
2022-11-28T03:44:38.927Z,5.60
2022-11-28T03:47:28.976Z,5.60
2022-11-28T03:50:19.542Z,5.60
2022-11-28T03:53:11.175Z,5.60
2022-11-28T03:56:02.939Z,5.60
2022-11-28T03:58:53.708Z,5.60
2022-11-28T04:01:48.827Z,5.60
2022-11-28T04:04:39.302Z,5.60
2022-11-28T04:07:31.541Z,5.60
2022-11-28T04:10:21.921Z,5.50
2022-11-28T04:13:15.133Z,5.40
2022-11-28T04:16:05.191Z,5.50
2022-11-28T04:18:57.822Z,5.50
2022-11-28T04:21:46.822Z,5.60
2022-11-28T04:24:37.599Z,5.40
2022-11-28T04:27:29.162Z,5.50
2022-11-28T04:30:17.152Z,5.50
2022-11-28T04:33:07.649Z,5.50
2022-11-28T04:35:57.733Z,5.50
2022-11-28T04:38:54.340Z,5.50
2022-11-28T04:41:44.689Z,5.50
2022-11-28T04:44:36.353Z,5.50
2022-11-28T04:47:25.805Z,5.50
2022-11-28T04:50:14.909Z,5.60
2022-11-28T04:53:06.986Z,5.60
2022-11-28T04:56:01.185Z,5.50
2022-11-28T04:58:50.895Z,5.50
2022-11-28T05:01:40.156Z,5.60
2022-11-28T05:04:28.459Z,5.50
2022-11-28T05:07:16.635Z,5.50
2022-11-28T05:10:07.417Z,5.50
2022-11-28T05:12:55.422Z,5.50
2022-11-28T05:15:43.452Z,5.50
2022-11-28T05:18:32.054Z,5.50
2022-11-28T05:21:20.808Z,5.50
2022-11-28T05:24:09.542Z,5.50
2022-11-28T05:26:58.831Z,5.50
2022-11-28T05:29:51.912Z,5.50
2022-11-28T05:32:40.222Z,5.50
2022-11-28T05:35:28.267Z,5.50
2022-11-28T05:38:16.153Z,5.50
2022-11-28T05:41:04.148Z,5.50
2022-11-28T05:43:53.591Z,5.50
2022-11-28T05:46:41.502Z,5.50
2022-11-28T05:49:29.406Z,5.50
2022-11-28T05:52:17.493Z,5.50
2022-11-28T05:55:05.787Z,5.50
2022-11-28T05:57:54.741Z,5.50
2022-11-28T06:00:44.031Z,5.50
2022-11-28T06:03:31.967Z,5.50
2022-11-28T06:06:21.097Z,5.50
2022-11-28T06:09:09.027Z,5.50
2022-11-28T06:11:56.933Z,5.50
2022-11-28T06:14:44.837Z,5.50
2022-11-28T06:17:34.255Z,5.50
2022-11-28T06:20:22.260Z,5.50
2022-11-28T06:23:10.176Z,5.40
2022-11-28T06:25:58.277Z,5.40
2022-11-28T06:28:46.529Z,5.50
2022-11-28T06:31:34.609Z,5.50
2022-11-28T06:34:23.995Z,5.50
2022-11-28T06:37:12.030Z,5.40
2022-11-28T06:40:00.459Z,5.40
2022-11-28T06:42:50.376Z,5.40
2022-11-28T06:45:38.324Z,5.40
2022-11-28T06:48:26.395Z,5.30
2022-11-28T06:51:15.906Z,5.30
2022-11-28T06:54:03.771Z,5.30
2022-11-28T06:56:51.637Z,5.30
2022-11-28T06:59:39.630Z,5.30
2022-11-28T07:02:27.725Z,5.40
2022-11-28T07:05:16.688Z,5.30
2022-11-28T07:08:06.242Z,5.30
2022-11-28T07:10:54.234Z,5.30
2022-11-28T07:13:42.432Z,5.30
2022-11-28T07:16:31.611Z,5.30
2022-11-28T07:19:22.748Z,5.40
2022-11-28T07:22:11.062Z,5.40
2022-11-28T07:25:00.383Z,5.40
2022-11-28T07:27:48.239Z,5.40
2022-11-28T07:30:36.111Z,5.30
2022-11-28T07:33:23.986Z,5.30
2022-11-28T07:36:13.066Z,5.30
2022-11-28T07:39:01.871Z,5.20
2022-11-28T07:41:51.388Z,5.20
2022-11-28T07:44:39.343Z,5.20
2022-11-28T07:47:27.340Z,5.20
2022-11-28T07:50:15.271Z,5.20
2022-11-28T07:53:07.136Z,5.30
2022-11-28T07:55:55.374Z,5.30
2022-11-28T07:58:45.593Z,5.20
2022-11-28T08:01:35.749Z,5.30
2022-11-28T08:04:23.913Z,5.30
2022-11-28T08:07:13.495Z,5.30
2022-11-28T08:10:01.403Z,5.30
2022-11-28T08:12:49.625Z,5.30
2022-11-28T08:15:39.015Z,5.30
2022-11-28T08:18:27.440Z,5.30
2022-11-28T08:21:16.428Z,5.30
2022-11-28T08:24:05.776Z,5.30
2022-11-28T08:26:53.823Z,5.30
2022-11-28T08:29:41.962Z,5.30
2022-11-28T08:32:31.666Z,5.30
2022-11-28T08:35:20.090Z,5.30
2022-11-28T08:38:07.921Z,5.30
2022-11-28T08:41:01.249Z,5.40
2022-11-28T08:43:49.550Z,5.40
2022-11-28T08:46:37.476Z,5.40
2022-11-28T08:49:26.749Z,5.40
2022-11-28T08:52:14.746Z,5.50
2022-11-28T08:55:02.730Z,5.40
2022-11-28T08:57:50.697Z,5.50
2022-11-28T09:00:38.649Z,5.50
2022-11-28T09:03:26.663Z,5.40
2022-11-28T09:06:16.648Z,5.40
2022-11-28T09:09:04.661Z,5.50
2022-11-28T09:11:52.522Z,5.40
2022-11-28T09:14:40.450Z,5.40
2022-11-28T09:17:28.326Z,5.50
2022-11-28T09:20:16.632Z,5.50
2022-11-28T09:23:05.920Z,5.50
2022-11-28T09:25:53.816Z,5.50
2022-11-28T09:28:41.740Z,5.50
2022-11-28T09:31:29.744Z,5.60
2022-11-28T09:34:17.807Z,5.60
2022-11-28T09:37:05.730Z,5.50
2022-11-28T09:40:12.527Z,5.50
2022-11-28T09:43:02.177Z,5.50
2022-11-28T09:45:52.399Z,5.50
2022-11-28T09:48:42.834Z,5.60
2022-11-28T09:51:34.365Z,5.60
2022-11-28T09:54:23.633Z,5.60
2022-11-28T09:57:16.406Z,5.70
2022-11-28T10:00:04.916Z,5.60
2022-11-28T10:02:59.506Z,5.70
2022-11-28T10:05:49.867Z,5.70
2022-11-28T10:08:43.557Z,5.70
2022-11-28T10:11:36.298Z,5.70
2022-11-28T10:14:38.822Z,5.70
2022-11-28T10:17:34.452Z,5.70
2022-11-28T10:20:24.009Z,5.70
2022-11-28T10:23:14.760Z,5.70
2022-11-28T10:26:05.752Z,5.80
2022-11-28T10:28:54.821Z,5.80
2022-11-28T10:31:45.660Z,5.80
2022-11-28T10:34:35.711Z,5.90
2022-11-28T10:37:26.418Z,5.80
2022-11-28T10:40:24.384Z,5.80
2022-11-28T10:43:15.922Z,5.80
2022-11-28T10:46:09.344Z,5.70
2022-11-28T10:49:01.835Z,5.80
2022-11-28T10:51:52.860Z,5.80
2022-11-28T10:54:58.829Z,5.90
2022-11-28T10:57:52.076Z,5.90
2022-11-28T11:00:40.440Z,5.90
2022-11-28T11:03:29.712Z,5.90
2022-11-28T11:06:18.986Z,6.00
2022-11-28T11:09:06.986Z,6.00
2022-11-28T11:11:59.424Z,6.00
2022-11-28T11:14:47.356Z,6.00
2022-11-28T11:17:37.729Z,6.10
2022-11-28T11:20:34.386Z,6.10
2022-11-28T11:23:24.595Z,6.10
2022-11-28T11:26:21.373Z,6.10
2022-11-28T11:29:20.666Z,6.20
2022-11-28T11:32:18.869Z,6.20
2022-11-28T11:35:07.450Z,6.20
2022-11-28T11:37:58.991Z,6.20
2022-11-28T11:40:48.232Z,6.20
2022-11-28T11:43:36.596Z,6.30
2022-11-28T11:46:24.600Z,6.30
2022-11-28T11:49:28.390Z,6.30
2022-11-28T11:52:18.283Z,6.30
2022-11-28T11:55:12.347Z,6.20
2022-11-28T11:58:05.830Z,6.20
2022-11-28T12:00:55.783Z,6.30
2022-11-28T12:03:50.291Z,6.20
2022-11-28T12:06:39.420Z,6.30
2022-11-28T12:09:29.704Z,6.20
2022-11-28T12:12:19.135Z,6.30
2022-11-28T12:15:14.894Z,6.20
2022-11-28T12:18:10.375Z,6.30
2022-11-28T12:21:04.632Z,6.30
2022-11-28T12:24:01.956Z,6.30
2022-11-28T12:26:51.813Z,6.30
2022-11-28T12:29:44.703Z,6.40
2022-11-28T12:32:39.647Z,6.30
2022-11-28T12:35:31.787Z,6.30
2022-11-28T12:38:25.626Z,6.30
2022-11-28T12:41:25.105Z,6.30
2022-11-28T12:44:20.303Z,6.30
2022-11-28T12:47:10.944Z,6.30
2022-11-28T12:50:04.031Z,6.30
2022-11-28T12:52:56.583Z,6.30
2022-11-28T12:55:49.459Z,6.30
2022-11-28T12:58:40.400Z,6.30
2022-11-28T13:01:35.317Z,6.30
2022-11-28T13:04:34.477Z,6.30
2022-11-28T13:07:28.729Z,6.30
2022-11-28T13:10:22.435Z,6.30
2022-11-28T13:13:12.949Z,6.40
2022-11-28T13:16:08.367Z,6.30
2022-11-28T13:18:58.955Z,6.30
2022-11-28T13:21:48.840Z,6.30
2022-11-28T13:24:41.591Z,6.40
2022-11-28T13:27:36.324Z,6.40
2022-11-28T13:30:25.679Z,6.40
2022-11-28T13:33:23.391Z,6.40
2022-11-28T13:38:34.862Z,6.30
2022-11-28T13:39:27.381Z,6.40
2022-11-28T13:42:52.816Z,6.40
2022-11-28T13:45:32.608Z,6.40
2022-11-28T13:49:12.755Z,6.30
2022-11-28T13:51:48.857Z,6.40
2022-11-28T13:54:43.024Z,6.40
2022-11-28T13:57:37.501Z,6.40
2022-11-28T14:00:27.743Z,6.40
2022-11-28T14:03:19.503Z,6.40
2022-11-28T14:06:08.095Z,6.40
2022-11-28T14:09:02.726Z,6.40
2022-11-28T14:12:00.077Z,6.40
2022-11-28T14:14:56.555Z,6.50
2022-11-28T14:17:50.381Z,6.40
2022-11-28T14:20:41.188Z,6.40
2022-11-28T14:23:32.905Z,6.50
2022-11-28T14:26:24.777Z,6.50
2022-11-28T14:29:21.142Z,6.50
2022-11-28T14:32:31.794Z,6.50
2022-11-28T14:35:40.103Z,6.50
2022-11-28T14:38:44.341Z,6.50
2022-11-28T14:41:32.407Z,6.50
2022-11-28T14:44:47.704Z,6.50
2022-11-28T14:47:42.460Z,6.50
2022-11-28T14:50:49.805Z,6.50
2022-11-28T14:53:46.470Z,6.50
2022-11-28T14:56:35.021Z,6.60
2022-11-28T14:59:25.567Z,6.50
2022-11-28T15:02:31.053Z,6.50
2022-11-28T15:05:30.344Z,6.50
2022-11-28T15:08:21.377Z,6.50
2022-11-28T15:11:19.203Z,6.40
2022-11-28T15:14:10.471Z,6.40
2022-11-28T15:17:02.907Z,6.40
2022-11-28T15:19:50.938Z,6.40
2022-11-28T15:22:41.837Z,6.40
2022-11-28T15:25:35.380Z,6.40
2022-11-28T15:28:25.434Z,6.30
2022-11-28T15:31:21.476Z,6.40
2022-11-28T15:34:09.974Z,6.40
2022-11-28T15:36:58.737Z,6.30
2022-11-28T15:39:49.319Z,6.30
2022-11-28T15:42:38.467Z,6.30
2022-11-28T15:45:27.731Z,6.30
2022-11-28T15:48:26.412Z,6.30
2022-11-28T15:51:22.891Z,6.30
2022-11-28T15:54:25.777Z,6.30
2022-11-28T15:57:20.585Z,6.30
2022-11-28T16:00:13.452Z,6.30
2022-11-28T16:03:01.792Z,6.30
2022-11-28T16:05:51.732Z,6.30
2022-11-28T16:08:41.345Z,6.30
2022-11-28T16:11:30.662Z,6.30
2022-11-28T16:14:23.200Z,6.30
2022-11-28T16:17:15.429Z,6.30
2022-11-28T16:20:04.622Z,6.30
2022-11-28T16:22:59.385Z,6.30
2022-11-28T16:25:47.990Z,6.30
2022-11-28T16:28:36.934Z,6.30
2022-11-28T16:31:27.413Z,6.30
2022-11-28T16:34:15.729Z,6.30
2022-11-28T16:37:10.954Z,6.30
2022-11-28T16:40:08.551Z,6.30
2022-11-28T16:42:59.705Z,6.30
2022-11-28T16:45:47.631Z,6.30
2022-11-28T16:48:38.175Z,6.30
2022-11-28T16:51:39.645Z,6.40
2022-11-28T16:54:29.509Z,6.30
2022-11-28T16:57:17.820Z,6.30
2022-11-28T17:00:06.342Z,6.30
2022-11-28T17:02:54.295Z,6.30
2022-11-28T17:05:43.494Z,6.30
2022-11-28T17:08:31.410Z,6.30
2022-11-28T17:11:23.761Z,6.30
2022-11-28T17:14:13.717Z,6.30
2022-11-28T17:17:01.854Z,6.30
2022-11-28T17:19:49.958Z,6.30
2022-11-28T17:22:41.518Z,6.30
2022-11-28T17:25:29.469Z,6.30
2022-11-28T17:28:22.290Z,6.30
2022-11-28T17:31:15.644Z,6.30
2022-11-28T17:34:03.721Z,6.40
2022-11-28T17:36:51.859Z,6.40
2022-11-28T17:40:01.490Z,6.40
2022-11-28T17:42:49.889Z,6.40
2022-11-28T17:45:38.280Z,6.30
2022-11-28T17:48:26.242Z,6.30
2022-11-28T17:51:14.307Z,6.30
2022-11-28T17:54:02.254Z,6.30
2022-11-28T17:56:52.568Z,6.30
2022-11-28T17:59:40.482Z,6.30
2022-11-28T18:02:28.615Z,6.30
2022-11-28T18:05:16.556Z,6.30
2022-11-28T18:08:04.611Z,6.30
2022-11-28T18:11:02.534Z,6.40
2022-11-28T18:13:51.832Z,6.40
2022-11-28T18:16:42.935Z,6.30
2022-11-28T18:19:30.865Z,6.40
2022-11-28T18:22:18.695Z,6.40
2022-11-28T18:25:08.024Z,6.40
2022-11-28T18:27:56.134Z,6.40
2022-11-28T18:30:45.934Z,6.40
2022-11-28T18:33:35.265Z,6.40
2022-11-28T18:36:24.281Z,6.40
2022-11-28T18:39:13.363Z,6.40
2022-11-28T18:42:01.261Z,6.40
2022-11-28T18:44:49.187Z,6.40
2022-11-28T18:47:38.494Z,6.40
2022-11-28T18:50:26.772Z,6.40
2022-11-28T18:53:14.646Z,6.40
2022-11-28T18:56:03.163Z,6.40
2022-11-28T18:58:52.330Z,6.40
2022-11-28T19:01:40.344Z,6.40
2022-11-28T19:04:29.786Z,6.40
2022-11-28T19:07:17.737Z,6.40
2022-11-28T19:10:06.071Z,6.40
2022-11-28T19:12:53.977Z,6.40
2022-11-28T19:15:42.026Z,6.40
2022-11-28T19:18:29.876Z,6.40
2022-11-28T19:21:20.068Z,6.40
2022-11-28T19:24:09.096Z,6.40
2022-11-28T19:26:56.912Z,6.40
2022-11-28T19:29:45.275Z,6.40
2022-11-28T19:32:34.335Z,6.40
2022-11-28T19:35:22.478Z,6.40
2022-11-28T19:38:11.710Z,6.40
2022-11-28T19:40:59.750Z,6.40
2022-11-28T19:43:47.910Z,6.40
2022-11-28T19:46:36.100Z,6.40
2022-11-28T19:49:24.820Z,6.40
2022-11-28T19:52:13.703Z,6.40
2022-11-28T19:55:03.041Z,6.40
2022-11-28T19:57:50.905Z,6.40
2022-11-28T20:00:38.835Z,6.40
2022-11-28T20:03:26.660Z,6.40
2022-11-28T20:06:16.070Z,6.40
2022-11-28T20:09:06.412Z,6.40
2022-11-28T20:11:55.684Z,6.40
2022-11-28T20:14:43.601Z,6.40
2022-11-28T20:17:31.463Z,6.50
2022-11-28T20:20:20.393Z,6.50
2022-11-28T20:23:08.526Z,6.50
2022-11-28T20:25:56.505Z,6.50
2022-11-28T20:28:45.832Z,6.50
2022-11-28T20:31:35.736Z,6.50
2022-11-28T20:34:23.746Z,6.50
2022-11-28T20:37:11.673Z,6.50
2022-11-28T20:39:59.618Z,6.50
2022-11-28T20:42:47.415Z,6.50
2022-11-28T20:45:37.155Z,6.50
2022-11-28T20:48:25.513Z,6.50
2022-11-28T20:51:14.941Z,6.50
2022-11-28T20:54:04.791Z,6.60
2022-11-28T21:00:00.785Z,6.50
2022-11-28T21:02:49.997Z,6.50
2022-11-28T21:05:38.065Z,6.60
2022-11-28T21:08:25.917Z,6.50
2022-11-28T21:11:25.593Z,6.50
2022-11-28T21:14:23.143Z,6.40
2022-11-28T21:17:11.026Z,6.40
2022-11-28T21:20:00.696Z,6.50
2022-11-28T21:22:48.621Z,6.50
2022-11-28T21:25:37.297Z,6.50
2022-11-28T21:28:25.138Z,6.50
2022-11-28T21:31:13.930Z,6.50
2022-11-28T21:34:02.186Z,6.60
2022-11-28T21:36:51.580Z,6.50
2022-11-28T21:39:39.460Z,6.50
2022-11-28T21:42:27.309Z,6.60
2022-11-28T21:45:15.265Z,6.50
2022-11-28T21:48:03.112Z,6.50
2022-11-28T21:50:51.700Z,6.50
2022-11-28T21:53:41.238Z,6.50
2022-11-28T21:56:29.142Z,6.50
2022-11-28T21:59:17.024Z,6.50
2022-11-28T22:02:10.047Z,6.50
2022-11-28T22:05:00.032Z,6.50
2022-11-28T22:07:47.989Z,6.50
2022-11-28T22:10:39.318Z,6.50
2022-11-28T22:13:27.217Z,6.50
2022-11-28T22:16:16.394Z,6.50
2022-11-28T22:19:04.353Z,6.50
2022-11-28T22:21:53.477Z,6.60
2022-11-28T22:24:43.300Z,6.60
2022-11-28T22:27:32.982Z,6.60
2022-11-28T22:30:21.053Z,6.60
2022-11-28T22:33:08.881Z,6.60
2022-11-28T22:36:03.251Z,6.50
2022-11-28T22:38:55.406Z,6.60
2022-11-28T22:41:43.671Z,6.60
2022-11-28T22:44:32.949Z,6.60
2022-11-28T22:47:21.200Z,6.60
2022-11-28T22:50:09.488Z,6.60
2022-11-28T22:52:57.366Z,6.60
2022-11-28T22:55:45.322Z,6.60
2022-11-28T22:58:39.440Z,6.60
2022-11-28T23:01:32.485Z,6.60
2022-11-28T23:04:20.407Z,6.60
2022-11-28T23:07:08.324Z,6.60
2022-11-28T23:09:56.201Z,6.60
2022-11-28T23:12:44.222Z,6.70
2022-11-28T23:15:32.283Z,6.70
2022-11-28T23:18:21.500Z,6.70
2022-11-28T23:21:09.699Z,6.70
2022-11-28T23:23:57.580Z,6.70
2022-11-28T23:26:45.893Z,6.70
2022-11-28T23:29:33.881Z,6.70
2022-11-28T23:32:21.793Z,6.70
2022-11-28T23:35:11.112Z,6.70
2022-11-28T23:37:59.006Z,6.70
2022-11-28T23:40:46.912Z,6.70
2022-11-28T23:43:34.888Z,6.70
2022-11-28T23:46:24.115Z,6.70
2022-11-28T23:49:12.349Z,6.70
2022-11-28T23:52:01.599Z,6.70
2022-11-28T23:54:49.423Z,6.70
2022-11-28T23:57:37.346Z,6.70
